createdAt,value
2018-06-25T00:00:40.436Z,101563.09
2018-06-25T00:03:09.549Z,101573.95
2018-06-25T00:05:38.638Z,101580.26
2018-06-25T00:08:07.744Z,101576.64
2018-06-25T00:10:36.838Z,101588.05
2018-06-25T00:13:06.297Z,101580.66
2018-06-25T00:15:35.709Z,101579.88
2018-06-25T00:18:05.553Z,101574.55
2018-06-25T00:20:34.649Z,101564.84
2018-06-25T00:23:03.753Z,101564.91
2018-06-25T00:25:32.853Z,101571.09
2018-06-25T00:28:01.958Z,101568.47
2018-06-25T00:30:31.082Z,101565.69
2018-06-25T00:33:00.175Z,101562.16
2018-06-25T00:35:29.287Z,101554.99
2018-06-25T00:37:58.405Z,101560.31
2018-06-25T00:40:27.498Z,101552.48
2018-06-25T00:42:58.817Z,101556.41
2018-06-25T00:45:28.850Z,101551.20
2018-06-25T00:47:58.386Z,101549.79
2018-06-25T00:50:27.717Z,101553.75
2018-06-25T00:52:56.814Z,101561.72
2018-06-25T00:55:25.942Z,101558.66
2018-06-25T00:57:55.022Z,101570.22
2018-06-25T01:00:24.229Z,101567.66
2018-06-25T01:02:53.305Z,101572.84
2018-06-25T01:05:22.420Z,101572.30
2018-06-25T01:07:51.513Z,101576.23
2018-06-25T01:10:20.610Z,101578.59
2018-06-25T01:12:49.693Z,101577.26
2018-06-25T01:15:18.801Z,101578.48
2018-06-25T01:17:47.903Z,101573.73
2018-06-25T01:20:17.033Z,101578.71
2018-06-25T01:22:46.153Z,101577.80
2018-06-25T01:25:15.253Z,101583.02
2018-06-25T01:27:44.426Z,101577.42
2018-06-25T01:30:13.573Z,101576.12
2018-06-25T01:32:42.766Z,101581.03
2018-06-25T01:35:11.901Z,101579.23
2018-06-25T01:37:41.063Z,101578.27
2018-06-25T01:40:10.150Z,101579.23
2018-06-25T01:42:39.277Z,101570.00
2018-06-25T01:45:08.406Z,101564.63
2018-06-25T01:47:37.533Z,101563.26
2018-06-25T01:50:06.704Z,101559.45
2018-06-25T01:52:35.830Z,101562.61
2018-06-25T01:55:04.962Z,101558.73
2018-06-25T01:57:34.085Z,101563.92
2018-06-25T02:00:03.287Z,101559.97
2018-06-25T02:02:33.182Z,101561.66
2018-06-25T02:05:02.334Z,101561.54
2018-06-25T02:07:31.556Z,101568.47
2018-06-25T02:10:00.661Z,101565.84
2018-06-25T02:12:29.753Z,101564.06
2018-06-25T02:14:58.873Z,101565.15
2018-06-25T02:17:28.125Z,101559.13
2018-06-25T02:19:57.271Z,101568.15
2018-06-25T02:22:26.426Z,101571.75
2018-06-25T02:24:55.669Z,101563.45
2018-06-25T02:27:24.791Z,101567.71
2018-06-25T02:29:55.426Z,101568.75
2018-06-25T02:32:24.535Z,101569.72
2018-06-25T02:34:53.622Z,101564.84
2018-06-25T02:37:22.729Z,101570.00
2018-06-25T02:39:51.834Z,101573.47
2018-06-25T02:42:20.986Z,101574.37
2018-06-25T02:44:50.071Z,101576.98
2018-06-25T02:47:19.173Z,101572.59
2018-06-25T02:49:48.301Z,101572.48
2018-06-25T02:52:17.430Z,101565.59
2018-06-25T02:54:46.526Z,101571.29
2018-06-25T02:57:15.630Z,101568.75
2018-06-25T02:59:44.794Z,101568.75
2018-06-25T03:02:13.906Z,101566.71
2018-06-25T03:04:43.025Z,101569.70
2018-06-25T03:07:12.130Z,101570.06
2018-06-25T03:09:41.221Z,101566.95
2018-06-25T03:12:10.358Z,101571.03
2018-06-25T03:14:39.734Z,101574.09
2018-06-25T03:17:08.834Z,101574.08
2018-06-25T03:19:37.929Z,101581.02
2018-06-25T03:22:07.030Z,101573.28
2018-06-25T03:24:36.161Z,101572.45
2018-06-25T03:27:05.267Z,101576.91
2018-06-25T03:29:34.374Z,101579.07
2018-06-25T03:32:03.478Z,101582.15
2018-06-25T03:34:32.655Z,101583.83
2018-06-25T03:37:01.770Z,101583.45
2018-06-25T03:39:30.885Z,101582.58
2018-06-25T03:41:59.988Z,101577.74
2018-06-25T03:44:29.089Z,101579.09
2018-06-25T03:46:58.243Z,101587.34
2018-06-25T03:49:27.397Z,101592.60
2018-06-25T03:51:56.686Z,101594.38
2018-06-25T03:54:26.118Z,101595.69
2018-06-25T03:56:55.316Z,101602.65
2018-06-25T03:59:24.404Z,101601.30
2018-06-25T04:01:53.540Z,101601.70
2018-06-25T04:04:22.757Z,101603.00
2018-06-25T04:06:51.909Z,101593.45
2018-06-25T04:09:20.993Z,101590.86
2018-06-25T04:11:50.093Z,101599.17
2018-06-25T04:14:19.185Z,101602.61
2018-06-25T04:16:48.286Z,101598.83
2018-06-25T04:19:17.389Z,101605.79
2018-06-25T04:21:47.889Z,101606.64
2018-06-25T04:24:17.090Z,101615.34
2018-06-25T04:26:46.198Z,101619.71
2018-06-25T04:29:15.281Z,101621.42
2018-06-25T04:31:44.417Z,101625.31
2018-06-25T04:34:13.538Z,101621.88
2018-06-25T04:36:42.629Z,101627.58
2018-06-25T04:39:11.793Z,101625.83
2018-06-25T04:41:46.706Z,101631.94
2018-06-25T04:44:15.829Z,101628.00
2018-06-25T04:46:44.954Z,101634.92
2018-06-25T04:49:14.057Z,101630.14
2018-06-25T04:51:43.141Z,101635.37
2018-06-25T04:54:12.247Z,101630.09
2018-06-25T04:56:41.366Z,101636.22
2018-06-25T04:59:10.583Z,101642.37
2018-06-25T05:01:39.705Z,101640.22
2018-06-25T05:04:08.890Z,101635.38
2018-06-25T05:06:38.010Z,101644.95
2018-06-25T05:09:08.737Z,101651.97
2018-06-25T05:11:37.842Z,101648.02
2018-06-25T05:14:06.965Z,101646.25
2018-06-25T05:16:36.081Z,101638.45
2018-06-25T05:19:05.330Z,101648.02
2018-06-25T05:21:34.469Z,101645.34
2018-06-25T05:24:03.610Z,101642.33
2018-06-25T05:26:32.729Z,101649.29
2018-06-25T05:29:01.829Z,101647.99
2018-06-25T05:31:30.969Z,101653.66
2018-06-25T05:34:00.065Z,101649.33
2018-06-25T05:36:29.218Z,101657.56
2018-06-25T05:38:58.321Z,101650.53
2018-06-25T05:41:27.433Z,101650.53
2018-06-25T05:43:56.574Z,101657.02
2018-06-25T05:46:25.746Z,101658.39
2018-06-25T05:48:55.218Z,101659.75
2018-06-25T05:51:24.321Z,101659.73
2018-06-25T05:53:56.758Z,101668.91
2018-06-25T05:56:25.885Z,101665.94
2018-06-25T05:58:55.518Z,101665.48
2018-06-25T06:01:24.694Z,101671.16
2018-06-25T06:03:53.813Z,101675.98
2018-06-25T06:06:23.293Z,101681.23
2018-06-25T06:08:52.427Z,101682.06
2018-06-25T06:11:21.854Z,101682.03
2018-06-25T06:13:51.063Z,101681.17
2018-06-25T06:16:20.193Z,101683.31
2018-06-25T06:18:49.421Z,101683.31
2018-06-25T06:21:18.814Z,101683.69
2018-06-25T06:23:47.941Z,101683.27
2018-06-25T06:26:17.064Z,101690.22
2018-06-25T06:28:46.185Z,101695.03
2018-06-25T06:31:15.314Z,101687.95
2018-06-25T06:33:44.436Z,101692.30
2018-06-25T06:36:13.549Z,101687.89
2018-06-25T06:38:42.980Z,101693.12
2018-06-25T06:41:12.077Z,101701.52
2018-06-25T06:43:41.206Z,101701.54
2018-06-25T06:46:10.356Z,101703.70
2018-06-25T06:48:39.507Z,101706.81
2018-06-25T06:51:08.653Z,101707.19
2018-06-25T06:53:37.781Z,101709.34
2018-06-25T06:56:06.929Z,101713.72
2018-06-25T06:58:36.077Z,101711.52
2018-06-25T07:01:05.224Z,101715.47
2018-06-25T07:03:34.346Z,101706.76
2018-06-25T07:06:03.498Z,101714.17
2018-06-25T07:08:32.644Z,101712.84
2018-06-25T07:11:01.806Z,101713.77
2018-06-25T07:13:30.910Z,101716.36
2018-06-25T07:16:00.033Z,101723.31
2018-06-25T07:18:29.134Z,101719.41
2018-06-25T07:20:58.265Z,101724.58
2018-06-25T07:23:27.385Z,101728.53
2018-06-25T07:25:56.534Z,101732.46
2018-06-25T07:28:25.658Z,101726.41
2018-06-25T07:30:54.815Z,101730.27
2018-06-25T07:33:23.997Z,101728.47
2018-06-25T07:35:53.122Z,101725.42
2018-06-25T07:38:22.265Z,101726.69
2018-06-25T07:40:51.377Z,101725.78
2018-06-25T07:43:20.481Z,101731.42
2018-06-25T07:45:49.605Z,101730.56
2018-06-25T07:48:18.704Z,101737.93
2018-06-25T07:50:47.874Z,101736.15
2018-06-25T07:53:16.997Z,101739.66
2018-06-25T07:55:46.081Z,101741.34
2018-06-25T07:58:15.205Z,101744.05
2018-06-25T08:00:44.333Z,101737.97
2018-06-25T08:03:13.448Z,101739.68
2018-06-25T08:05:42.559Z,101735.58
2018-06-25T08:08:11.858Z,101739.85
2018-06-25T08:10:41.022Z,101740.18
2018-06-25T08:13:10.141Z,101740.18
2018-06-25T08:15:39.244Z,101739.66
2018-06-25T08:18:08.336Z,101733.18
2018-06-25T08:20:37.486Z,101740.58
2018-06-25T08:23:06.602Z,101746.23
2018-06-25T08:25:35.702Z,101749.59
2018-06-25T08:28:04.849Z,101747.61
2018-06-25T08:30:33.981Z,101749.87
2018-06-25T08:33:03.162Z,101744.98
2018-06-25T08:35:32.271Z,101752.42
2018-06-25T08:38:01.401Z,101754.84
2018-06-25T08:40:30.521Z,101751.28
2018-06-25T08:42:59.669Z,101757.23
2018-06-25T08:45:28.818Z,101753.40
2018-06-25T08:47:57.981Z,101759.66
2018-06-25T08:50:27.117Z,101757.06
2018-06-25T08:52:56.247Z,101755.64
2018-06-25T08:55:25.386Z,101762.84
2018-06-25T08:57:54.533Z,101763.63
2018-06-25T09:00:23.617Z,101767.30
2018-06-25T09:02:52.740Z,101764.47
2018-06-25T09:05:21.843Z,101764.78
2018-06-25T09:07:50.958Z,101762.68
2018-06-25T09:10:20.089Z,101761.95
2018-06-25T09:12:49.222Z,101765.34
2018-06-25T09:15:18.385Z,101772.41
2018-06-25T09:17:47.450Z,101770.52
2018-06-25T09:20:16.565Z,101773.74
2018-06-25T09:22:45.697Z,101776.02
2018-06-25T09:25:14.830Z,101771.23
2018-06-25T09:27:48.965Z,101773.94
2018-06-25T09:30:19.329Z,101782.94
2018-06-25T09:32:48.476Z,101784.99
2018-06-25T09:35:17.611Z,101787.14
2018-06-25T09:37:46.696Z,101783.61
2018-06-25T09:40:15.861Z,101782.47
2018-06-25T09:42:44.958Z,101788.05
2018-06-25T09:45:14.086Z,101788.12
2018-06-25T09:47:43.201Z,101781.53
2018-06-25T09:50:12.333Z,101779.74
2018-06-25T09:52:41.481Z,101781.81
2018-06-25T09:55:10.623Z,101776.89
2018-06-25T09:57:39.713Z,101784.17
2018-06-25T10:00:08.845Z,101779.80
2018-06-25T10:02:37.933Z,101786.11
2018-06-25T10:05:07.062Z,101784.31
2018-06-25T10:07:36.170Z,101785.36
2018-06-25T10:10:05.248Z,101782.86
2018-06-25T10:12:34.359Z,101784.52
2018-06-25T10:15:03.522Z,101784.12
2018-06-25T10:17:32.646Z,101782.85
2018-06-25T10:20:01.750Z,101779.00
2018-06-25T10:22:30.866Z,101786.23
2018-06-25T10:24:59.993Z,101783.33
2018-06-25T10:27:29.094Z,101782.85
2018-06-25T10:29:58.221Z,101780.94
2018-06-25T10:32:27.333Z,101786.11
2018-06-25T10:34:56.577Z,101788.73
2018-06-25T10:37:25.710Z,101785.63
2018-06-25T10:39:54.809Z,101788.55
2018-06-25T10:42:24.024Z,101787.67
2018-06-25T10:44:53.363Z,101788.82
2018-06-25T10:47:22.470Z,101793.59
2018-06-25T10:49:51.601Z,101799.37
2018-06-25T10:52:20.726Z,101794.55
2018-06-25T10:54:49.861Z,101790.05
2018-06-25T10:57:18.989Z,101799.55
2018-06-25T10:59:48.196Z,101791.53
2018-06-25T11:02:17.202Z,101791.97
2018-06-25T11:04:46.311Z,101790.90
2018-06-25T11:07:15.532Z,101791.86
2018-06-25T11:09:44.543Z,101794.05
2018-06-25T11:12:13.665Z,101791.58
2018-06-25T11:14:42.818Z,101787.56
2018-06-25T11:17:11.930Z,101786.44
2018-06-25T11:19:41.067Z,101777.88
2018-06-25T11:22:10.185Z,101778.45
2018-06-25T11:24:39.298Z,101776.62
2018-06-25T11:27:08.534Z,101771.73
2018-06-25T11:29:37.550Z,101772.24
2018-06-25T11:32:06.673Z,101773.49
2018-06-25T11:34:35.800Z,101770.62
2018-06-25T11:37:04.974Z,101765.99
2018-06-25T11:39:34.086Z,101762.98
2018-06-25T11:42:03.215Z,101755.10
2018-06-25T11:44:32.330Z,101767.69
2018-06-25T11:47:01.429Z,101766.30
2018-06-25T11:49:30.529Z,101772.14
2018-06-25T11:51:59.630Z,101769.59
2018-06-25T11:54:28.747Z,101781.38
2018-06-25T11:56:57.848Z,101779.59
2018-06-25T11:59:27.029Z,101780.31
2018-06-25T12:01:56.215Z,101787.08
2018-06-25T12:04:25.264Z,101779.75
2018-06-25T12:06:54.365Z,101781.83
2018-06-25T12:09:23.487Z,101785.27
2018-06-25T12:11:52.583Z,101780.98
2018-06-25T12:14:21.717Z,101784.74
2018-06-25T12:16:50.829Z,101789.39
2018-06-25T12:19:19.967Z,101791.59
2018-06-25T12:21:49.065Z,101796.19
2018-06-25T12:24:18.165Z,101800.80
2018-06-25T12:26:47.261Z,101795.16
2018-06-25T12:29:16.365Z,101797.52
2018-06-25T12:31:45.478Z,101792.63
2018-06-25T12:34:14.869Z,101788.96
2018-06-25T12:36:44.050Z,101785.33
2018-06-25T12:39:13.157Z,101787.13
2018-06-25T12:41:42.282Z,101789.22
2018-06-25T12:44:11.421Z,101787.91
2018-06-25T12:46:40.526Z,101788.94
2018-06-25T12:49:09.654Z,101787.19
2018-06-25T12:51:38.785Z,101782.80
2018-06-25T12:54:07.946Z,101790.25
2018-06-25T12:56:37.045Z,101782.37
2018-06-25T12:59:06.169Z,101786.91
2018-06-25T13:01:35.333Z,101784.22
2018-06-25T13:04:04.396Z,101792.02
2018-06-25T13:06:33.517Z,101787.06
2018-06-25T13:09:02.699Z,101782.23
2018-06-25T13:11:31.878Z,101785.84
2018-06-25T13:14:00.985Z,101793.18
2018-06-25T13:16:30.124Z,101783.88
2018-06-25T13:18:59.253Z,101787.09
2018-06-25T13:21:28.398Z,101789.89
2018-06-25T13:23:57.593Z,101791.27
2018-06-25T13:26:26.738Z,101786.45
2018-06-25T13:28:55.897Z,101786.50
2018-06-25T13:31:25.806Z,101787.69
2018-06-25T13:33:54.983Z,101781.88
2018-06-25T13:36:24.106Z,101784.02
2018-06-25T13:38:53.225Z,101781.66
2018-06-25T13:41:22.382Z,101783.92
2018-06-25T13:43:51.489Z,101781.09
2018-06-25T13:46:20.601Z,101783.16
2018-06-25T13:48:49.721Z,101776.10
2018-06-25T13:51:18.994Z,101778.36
2018-06-25T13:53:48.217Z,101777.73
2018-06-25T13:56:17.339Z,101776.40
2018-06-25T13:58:46.477Z,101783.81
2018-06-25T14:01:15.615Z,101779.48
2018-06-25T14:03:44.753Z,101783.48
2018-06-25T14:06:13.845Z,101775.95
2018-06-25T14:08:42.977Z,101777.58
2018-06-25T14:11:12.393Z,101782.19
2018-06-25T14:13:41.505Z,101780.20
2018-06-25T14:16:10.645Z,101784.67
2018-06-25T14:18:39.789Z,101778.89
2018-06-25T14:21:08.966Z,101785.20
2018-06-25T14:23:41.880Z,101792.13
2018-06-25T14:26:11.121Z,101779.34
2018-06-25T14:28:40.233Z,101778.39
2018-06-25T14:31:14.781Z,101782.28
2018-06-25T14:33:48.314Z,101770.27
2018-06-25T14:36:17.493Z,101779.78
2018-06-25T14:38:46.626Z,101780.67
2018-06-25T14:41:15.749Z,101766.69
2018-06-25T14:43:44.852Z,101765.60
2018-06-25T14:46:13.997Z,101760.89
2018-06-25T14:48:43.185Z,101763.24
2018-06-25T14:51:12.318Z,101765.32
2018-06-25T14:53:41.445Z,101764.69
2018-06-25T14:56:10.554Z,101760.94
2018-06-25T14:58:39.685Z,101750.38
2018-06-25T15:01:08.781Z,101754.08
2018-06-25T15:03:39.149Z,101755.56
2018-06-25T15:06:08.273Z,101755.82
2018-06-25T15:08:37.369Z,101746.05
2018-06-25T15:11:06.781Z,101748.69
2018-06-25T15:13:35.881Z,101749.88
2018-06-25T15:16:05.270Z,101751.98
2018-06-25T15:18:34.362Z,101756.36
2018-06-25T15:21:03.496Z,101740.06
2018-06-25T15:26:01.574Z,101738.33
2018-06-25T15:28:30.694Z,101732.05
2018-06-25T15:30:59.797Z,101731.66
2018-06-25T15:33:28.913Z,101727.89
2018-06-25T15:35:58.069Z,101731.53
2018-06-25T15:38:28.261Z,101730.16
2018-06-25T15:40:57.653Z,101720.41
2018-06-25T15:43:26.737Z,101728.75
2018-06-25T15:45:55.845Z,101733.34
2018-06-25T15:48:24.938Z,101721.81
2018-06-25T15:50:54.052Z,101726.67
2018-06-25T15:53:23.150Z,101725.16
2018-06-25T15:55:52.288Z,101730.00
2018-06-25T15:58:21.366Z,101731.96
2018-06-25T16:00:50.449Z,101719.73
2018-06-25T16:03:19.570Z,101723.57
2018-06-25T16:05:48.674Z,101718.96
2018-06-25T16:08:17.769Z,101721.34
2018-06-25T16:10:46.856Z,101713.93
2018-06-25T16:13:16.104Z,101725.72
2018-06-25T16:15:45.266Z,101721.20
2018-06-25T16:18:14.393Z,101713.09
2018-06-25T16:20:43.577Z,101715.81
2018-06-25T16:23:12.741Z,101703.94
2018-06-25T16:25:41.878Z,101706.44
2018-06-25T16:28:11.013Z,101707.20
2018-06-25T16:30:40.122Z,101697.53
2018-06-25T16:33:09.213Z,101690.91
2018-06-25T16:35:38.419Z,101697.84
2018-06-25T16:38:07.573Z,101689.71
2018-06-25T16:40:36.720Z,101689.62
2018-06-25T16:43:07.829Z,101694.09
2018-06-25T16:45:36.949Z,101688.56
2018-06-25T16:48:06.102Z,101690.28
2018-06-25T16:50:35.207Z,101687.59
2018-06-25T16:53:04.321Z,101686.97
2018-06-25T16:55:33.469Z,101691.85
2018-06-25T16:58:02.537Z,101692.44
2018-06-25T17:00:31.698Z,101690.77
2018-06-25T17:03:00.793Z,101699.34
2018-06-25T17:05:29.917Z,101695.86
2018-06-25T17:07:59.059Z,101691.29
2018-06-25T17:10:28.190Z,101696.94
2018-06-25T17:12:57.418Z,101690.97
2018-06-25T17:15:26.542Z,101686.59
2018-06-25T17:17:55.690Z,101685.68
2018-06-25T17:20:24.868Z,101686.67
2018-06-25T17:22:53.966Z,101680.16
2018-06-25T17:25:23.117Z,101687.45
2018-06-25T17:27:52.293Z,101685.81
2018-06-25T17:30:21.397Z,101683.48
2018-06-25T17:32:50.515Z,101681.30
2018-06-25T17:35:19.601Z,101679.17
2018-06-25T17:37:48.745Z,101673.06
2018-06-25T17:40:18.038Z,101679.52
2018-06-25T17:42:47.289Z,101681.44
2018-06-25T17:45:16.393Z,101678.06
2018-06-25T17:47:45.524Z,101690.09
2018-06-25T17:50:14.649Z,101689.55
2018-06-25T17:52:43.760Z,101687.42
2018-06-25T17:55:12.949Z,101690.71
2018-06-25T17:57:42.046Z,101697.97
2018-06-25T18:00:11.189Z,101697.47
2018-06-25T18:02:40.364Z,101695.52
2018-06-25T18:05:09.461Z,101702.77
2018-06-25T18:07:38.585Z,101699.38
2018-06-25T18:10:07.734Z,101702.53
2018-06-25T18:12:36.853Z,101699.30
2018-06-25T18:15:06.186Z,101691.30
2018-06-25T18:17:35.345Z,101691.39
2018-06-25T18:20:04.841Z,101693.59
2018-06-25T18:22:33.969Z,101693.07
2018-06-25T18:25:03.217Z,101692.23
2018-06-25T18:27:32.436Z,101691.25
2018-06-25T18:30:02.652Z,101694.73
2018-06-25T18:32:31.753Z,101694.64
2018-06-25T18:35:00.861Z,101691.13
2018-06-25T18:37:29.973Z,101691.48
2018-06-25T18:39:59.090Z,101699.69
2018-06-25T18:42:28.205Z,101695.75
2018-06-25T18:44:57.319Z,101696.47
2018-06-25T18:47:26.493Z,101695.51
2018-06-25T18:49:55.566Z,101689.70
2018-06-25T18:52:25.095Z,101697.61
2018-06-25T18:54:54.374Z,101691.92
2018-06-25T18:59:51.709Z,101688.56
2018-06-25T19:02:20.813Z,101690.16
2018-06-25T19:04:49.922Z,101691.73
2018-06-25T19:07:20.129Z,101693.95
2018-06-25T19:09:49.539Z,101695.78
2018-06-25T19:12:18.669Z,101699.66
2018-06-25T19:14:47.825Z,101699.02
2018-06-25T19:17:17.018Z,101696.56
2018-06-25T19:19:46.217Z,101696.91
2018-06-25T19:22:15.579Z,101697.94
2018-06-25T19:24:44.710Z,101699.05
2018-06-25T19:27:13.821Z,101697.59
2018-06-25T19:29:42.980Z,101700.34
2018-06-25T19:32:12.082Z,101703.28
2018-06-25T19:34:41.400Z,101703.75
2018-06-25T19:37:10.783Z,101706.00
2018-06-25T19:39:40.370Z,101705.65
2018-06-25T19:42:09.533Z,101706.12
2018-06-25T19:44:39.198Z,101716.43
2018-06-25T19:47:08.434Z,101721.10
2018-06-25T19:49:37.568Z,101725.45
2018-06-25T19:52:06.682Z,101728.28
2018-06-25T19:54:36.329Z,101731.75
2018-06-25T19:57:05.449Z,101732.67
2018-06-25T19:59:34.614Z,101731.38
2018-06-25T20:02:03.701Z,101733.86
2018-06-25T20:04:32.874Z,101736.05
2018-06-25T20:07:02.057Z,101733.42
2018-06-25T20:09:31.153Z,101729.38
2018-06-25T20:12:00.529Z,101731.55
2018-06-25T20:14:29.651Z,101737.25
2018-06-25T20:16:58.749Z,101737.96
2018-06-25T20:19:27.872Z,101737.84
2018-06-25T20:21:59.289Z,101745.64
2018-06-25T20:24:28.397Z,101738.50
2018-06-25T20:26:57.498Z,101745.89
2018-06-25T20:29:26.614Z,101748.58
2018-06-25T20:31:55.798Z,101743.06
2018-06-25T20:34:25.385Z,101748.70
2018-06-25T20:36:54.786Z,101745.59
2018-06-25T20:39:23.893Z,101746.72
2018-06-25T20:41:53.007Z,101744.95
2018-06-25T20:44:24.141Z,101744.93
2018-06-25T20:46:53.386Z,101752.27
2018-06-25T20:49:22.444Z,101760.02
2018-06-25T20:51:57.497Z,101760.62
2018-06-25T20:54:27.409Z,101759.80
2018-06-25T20:56:56.590Z,101762.42
2018-06-25T20:59:25.667Z,101760.52
2018-06-25T21:01:54.805Z,101764.30
2018-06-25T21:04:23.914Z,101764.00
2018-06-25T21:06:53.002Z,101765.55
2018-06-25T21:09:22.128Z,101764.83
2018-06-25T21:11:51.293Z,101770.47
2018-06-25T21:14:20.413Z,101764.75
2018-06-25T21:16:49.558Z,101764.56
2018-06-25T21:19:18.726Z,101760.82
2018-06-25T21:21:47.862Z,101750.40
2018-06-25T21:24:17.028Z,101757.31
2018-06-25T21:26:46.101Z,101759.39
2018-06-25T21:29:15.238Z,101760.09
2018-06-25T21:31:45.013Z,101757.02
2018-06-25T21:34:14.185Z,101750.73
2018-06-25T21:36:43.360Z,101750.02
2018-06-25T21:39:12.921Z,101751.47
2018-06-25T21:41:42.069Z,101743.58
2018-06-25T21:44:11.221Z,101751.38
2018-06-25T21:46:40.322Z,101757.16
2018-06-25T21:49:09.458Z,101751.94
2018-06-25T21:51:38.645Z,101741.38
2018-06-25T21:54:07.745Z,101742.62
2018-06-25T21:56:36.894Z,101733.20
2018-06-25T21:59:05.989Z,101732.23
2018-06-25T22:01:35.190Z,101734.81
2018-06-25T22:04:04.341Z,101740.99
2018-06-25T22:06:33.470Z,101739.51
2018-06-25T22:09:02.561Z,101749.39
2018-06-25T22:11:31.666Z,101748.87
2018-06-25T22:14:00.780Z,101744.94
2018-06-25T22:16:29.865Z,101756.95
2018-06-25T22:18:59.006Z,101751.22
2018-06-25T22:21:28.110Z,101758.63
2018-06-25T22:23:57.221Z,101756.03
2018-06-25T22:26:26.338Z,101757.06
2018-06-25T22:28:55.441Z,101751.30
2018-06-25T22:31:24.637Z,101750.17
2018-06-25T22:33:53.746Z,101748.75
2018-06-25T22:36:22.997Z,101747.55
2018-06-25T22:38:52.154Z,101750.98
2018-06-25T22:41:22.149Z,101752.22
2018-06-25T22:43:51.530Z,101757.30
2018-06-25T22:46:20.665Z,101753.33
2018-06-25T22:48:49.758Z,101753.00
2018-06-25T22:51:18.897Z,101754.98
2018-06-25T22:53:48.005Z,101751.75
2018-06-25T22:56:17.129Z,101746.97
2018-06-25T22:58:46.285Z,101755.55
2018-06-25T23:01:15.635Z,101752.77
2018-06-25T23:03:45.631Z,101756.23
2018-06-25T23:06:14.693Z,101757.87
2018-06-25T23:08:43.866Z,101757.17
2018-06-25T23:11:13.210Z,101763.23
2018-06-25T23:13:42.321Z,101760.95
2018-06-25T23:16:11.417Z,101762.36
2018-06-25T23:18:40.531Z,101765.97
2018-06-25T23:21:09.649Z,101767.20
2018-06-25T23:23:38.746Z,101758.95
2018-06-25T23:26:08.242Z,101771.64
2018-06-25T23:28:37.337Z,101762.85
2018-06-25T23:31:06.457Z,101759.77
2018-06-25T23:33:35.582Z,101764.66
2018-06-25T23:36:04.741Z,101759.98
2018-06-25T23:38:33.877Z,101759.52
2018-06-25T23:41:02.966Z,101764.35
2018-06-25T23:43:32.130Z,101764.34
2018-06-25T23:46:01.225Z,101765.58
2018-06-25T23:48:30.586Z,101764.33
2018-06-25T23:50:59.694Z,101765.63
2018-06-25T23:53:28.800Z,101761.89
2018-06-25T23:55:58.022Z,101763.57
2018-06-25T23:58:27.117Z,101754.95
